In Rescue
 
Open Full Screen Window  High Contrast Mode
Wind Gusting 19 knots
12
March 31, 2020 2:18 PM CDT
Weather Information
Wind Direction
  140 °
Wind Speed
  12 kt (14 mph)
Wind Gust
  19 kt (22 mph)
Altimeter
30.04 in
Visibility
10 SM
Temperature
11° C
52° F
Dewpoint
-02° C
28° F
Humidity
41%
1hr Rain Fall
00.00 in.
24hr Rain Fall
00.00 in.
Sky Condition
Clear
VFR

METAR KFFM 311918Z AUTO 14012G19KT 10SM CLR 11/M02 A3004 RMK AO2

FAA Disclaimer: The data displayed is for advisory purposes only and is not to be used for flight planning or operations.